Metar z połowy godziny Komunikat METAR ze strony awiacja.imgw.pl Metar G30 EPTM METAR EPTM 170900Z 13008KT 9999 FEW040 25/15 Q1018 RMK 248 054 2/2=950SAPL97 SOPR 170900 RRC